createdAt,value
2023-02-12T00:01:28.796Z,8.50
2023-02-12T00:03:58.255Z,6.10
2023-02-12T00:06:26.710Z,8.30
2023-02-12T00:08:56.540Z,4.80
2023-02-12T00:11:29.612Z,9.80
2023-02-12T00:13:58.789Z,7.80
2023-02-12T00:16:29.167Z,5.90
2023-02-12T00:18:59.018Z,8.50
2023-02-12T00:21:27.895Z,6.30
2023-02-12T00:23:56.946Z,9.90
2023-02-12T00:26:25.621Z,12.90
2023-02-12T00:28:54.999Z,6.10
2023-02-12T00:31:26.768Z,6.20
2023-02-12T00:33:59.463Z,7.20
2023-02-12T00:36:30.998Z,4.70
2023-02-12T00:39:01.149Z,7.10
2023-02-12T00:41:29.347Z,6.80
2023-02-12T00:43:57.535Z,5.50
2023-02-12T00:46:25.701Z,4.50
2023-02-12T00:48:54.011Z,6.50
2023-02-12T00:51:22.563Z,6.90
2023-02-12T00:53:50.948Z,4.40
2023-02-12T00:56:18.994Z,6.50
2023-02-12T00:58:50.258Z,6.90
2023-02-12T01:01:18.572Z,7.20
2023-02-12T01:03:46.760Z,5.00
2023-02-12T01:06:15.125Z,4.70
2023-02-12T01:08:43.323Z,7.20
2023-02-12T01:11:13.845Z,7.30
2023-02-12T01:13:41.964Z,9.20
2023-02-12T01:16:16.476Z,7.00
2023-02-12T01:18:46.112Z,8.50
2023-02-12T01:21:20.468Z,6.00
2023-02-12T01:23:48.783Z,5.90
2023-02-12T01:26:19.359Z,9.60
2023-02-12T01:28:53.528Z,5.10
2023-02-12T01:31:27.068Z,7.10
2023-02-12T01:33:57.724Z,15.20
2023-02-12T01:36:29.337Z,14.60
2023-02-12T01:38:59.212Z,13.90
2023-02-12T01:41:30.864Z,14.50
2023-02-12T01:44:19.392Z,5.70
2023-02-12T01:46:50.781Z,10.90
2023-02-12T01:49:24.568Z,9.00
2023-02-12T01:51:59.323Z,4.80
2023-02-12T01:54:29.198Z,12.40
2023-02-12T01:56:57.555Z,7.80
2023-02-12T01:59:26.174Z,7.90
2023-02-12T02:01:56.133Z,5.30
2023-02-12T02:04:29.528Z,6.30
2023-02-12T02:07:06.592Z,6.40
2023-02-12T02:09:37.567Z,5.70
2023-02-12T02:12:25.353Z,5.00
2023-02-12T02:14:58.119Z,10.10
2023-02-12T02:17:37.806Z,10.90
2023-02-12T02:20:11.771Z,9.50
2023-02-12T02:23:04.224Z,9.40
2023-02-12T02:25:32.207Z,12.50
2023-02-12T02:28:28.749Z,12.50
2023-02-12T02:31:42.311Z,15.20
2023-02-12T02:34:43.749Z,15.80
2023-02-12T02:37:23.303Z,11.50
2023-02-12T02:40:09.720Z,11.00
2023-02-12T02:42:47.304Z,9.40
2023-02-12T02:45:41.578Z,7.80
2023-02-12T02:48:34.131Z,8.20
2023-02-12T02:51:09.517Z,7.30
2023-02-12T02:53:57.739Z,9.60
2023-02-12T02:56:27.903Z,9.50
2023-02-12T02:59:03.895Z,8.00
2023-02-12T03:01:43.503Z,9.20
2023-02-12T03:04:24.497Z,7.10
2023-02-12T03:06:59.492Z,8.00
2023-02-12T03:09:47.202Z,6.30
2023-02-12T03:12:38.727Z,9.50
2023-02-12T03:15:17.045Z,7.10
2023-02-12T03:17:47.969Z,7.50
2023-02-12T03:20:21.150Z,8.80
2023-02-12T03:22:54.752Z,4.70
2023-02-12T03:25:41.854Z,6.50
2023-02-12T03:28:16.542Z,7.80
2023-02-12T03:31:18.136Z,9.00
2023-02-12T03:33:48.927Z,6.50
2023-02-12T03:36:36.593Z,5.80
2023-02-12T03:39:35.490Z,7.40
2023-02-12T03:42:13.219Z,4.60
2023-02-12T03:44:48.142Z,4.60
2023-02-12T03:47:25.477Z,7.10
2023-02-12T03:50:02.766Z,5.80
2023-02-12T03:52:31.387Z,5.50
2023-02-12T03:54:59.750Z,5.70
2023-02-12T03:57:34.241Z,4.70
2023-02-12T04:00:06.648Z,5.40
2023-02-12T04:02:43.375Z,3.80
2023-02-12T04:05:28.090Z,5.90
2023-02-12T04:07:57.511Z,5.60
2023-02-12T04:10:36.073Z,7.20
2023-02-12T04:13:15.296Z,7.20
2023-02-12T04:15:49.573Z,8.90
2023-02-12T04:18:45.876Z,11.70
2023-02-12T04:21:32.249Z,9.00
2023-02-12T04:24:08.400Z,7.80
2023-02-12T04:26:39.583Z,10.00
2023-02-12T04:29:26.259Z,9.50
2023-02-12T04:32:23.537Z,7.50
2023-02-12T04:35:16.750Z,8.10
2023-02-12T04:38:02.636Z,11.20
2023-02-12T04:40:31.346Z,9.10
2023-02-12T04:42:59.595Z,12.40
2023-02-12T04:45:31.569Z,9.60
2023-02-12T04:48:00.627Z,13.00
2023-02-12T04:50:40.583Z,12.20
2023-02-12T04:53:09.989Z,13.20
2023-02-12T04:55:38.479Z,12.00
2023-02-12T04:58:07.145Z,8.90
2023-02-12T05:00:35.558Z,8.70
2023-02-12T05:03:04.144Z,8.40
2023-02-12T05:05:32.794Z,8.70
2023-02-12T05:08:01.004Z,9.40
2023-02-12T05:10:29.166Z,11.50
2023-02-12T05:12:57.218Z,12.50
2023-02-12T05:15:25.220Z,5.80
2023-02-12T05:17:53.366Z,9.50
2023-02-12T05:20:21.615Z,10.20
2023-02-12T05:22:53.106Z,10.80
2023-02-12T05:25:21.596Z,9.10
2023-02-12T05:27:49.667Z,8.90
2023-02-12T05:30:17.855Z,7.40
2023-02-12T05:32:45.935Z,12.40
2023-02-12T05:35:14.150Z,10.50
2023-02-12T05:37:42.453Z,14.00
2023-02-12T05:40:11.223Z,14.90
2023-02-12T05:42:39.404Z,8.50
2023-02-12T05:45:07.784Z,11.70
2023-02-12T05:47:35.861Z,10.70
2023-02-12T05:50:04.135Z,10.90
2023-02-12T05:52:32.171Z,12.10
2023-02-12T05:55:00.506Z,13.00
2023-02-12T05:57:28.563Z,11.70
2023-02-12T05:59:56.659Z,10.40
2023-02-12T06:02:24.813Z,12.70
2023-02-12T06:04:52.869Z,11.90
2023-02-12T06:07:21.706Z,9.90
2023-02-12T06:09:49.806Z,12.90
2023-02-12T06:12:17.971Z,13.30
2023-02-12T06:14:46.003Z,10.90
2023-02-12T06:17:14.203Z,10.80
2023-02-12T06:19:42.239Z,10.40
2023-02-12T06:22:10.268Z,12.60
2023-02-12T06:24:39.446Z,10.10
2023-02-12T06:27:07.493Z,12.80
2023-02-12T06:29:35.783Z,15.30
2023-02-12T06:32:04.274Z,12.40
2023-02-12T06:34:32.516Z,7.50
2023-02-12T06:37:00.843Z,10.70
2023-02-12T06:39:28.917Z,9.10
2023-02-12T06:41:56.952Z,8.80
2023-02-12T06:44:24.957Z,9.70
2023-02-12T06:46:53.745Z,9.10
2023-02-12T06:49:21.921Z,7.50
2023-02-12T06:51:49.946Z,11.90
2023-02-12T06:54:18.799Z,10.20
2023-02-12T06:56:46.906Z,11.80
2023-02-12T06:59:16.775Z,10.60
2023-02-12T07:01:45.088Z,11.20
2023-02-12T07:04:13.273Z,10.30
2023-02-12T07:06:41.481Z,14.30
2023-02-12T07:09:09.516Z,13.80
2023-02-12T07:11:38.614Z,18.50
2023-02-12T07:14:07.384Z,16.30
2023-02-12T07:16:35.770Z,21.20
2023-02-12T07:19:04.081Z,14.70
2023-02-12T07:21:32.312Z,21.40
2023-02-12T07:24:00.436Z,19.20
2023-02-12T07:26:28.973Z,13.50
2023-02-12T07:28:58.764Z,12.90
2023-02-12T07:31:27.086Z,12.70
2023-02-12T07:33:57.661Z,12.30
2023-02-12T07:36:28.836Z,13.60
2023-02-12T07:38:57.715Z,8.90
2023-02-12T07:41:28.560Z,14.40
2023-02-12T07:43:59.281Z,10.80
2023-02-12T07:46:30.580Z,13.00
2023-02-12T07:49:00.462Z,13.00
2023-02-12T07:51:29.026Z,16.20
2023-02-12T07:53:57.106Z,15.20
2023-02-12T07:56:31.039Z,15.10
2023-02-12T07:59:01.731Z,14.70
2023-02-12T08:01:38.919Z,10.10
2023-02-12T08:04:10.008Z,10.70
2023-02-12T08:06:41.106Z,8.70
2023-02-12T08:09:11.508Z,9.40
2023-02-12T08:11:41.743Z,8.70
2023-02-12T08:14:15.757Z,10.10
2023-02-12T08:16:45.789Z,12.60
2023-02-12T08:19:20.244Z,11.30
2023-02-12T08:21:53.750Z,10.80
2023-02-12T08:24:24.675Z,12.30
2023-02-12T08:26:53.011Z,14.60
2023-02-12T08:29:24.486Z,12.70
2023-02-12T08:31:58.108Z,10.40
2023-02-12T08:34:32.898Z,10.70
2023-02-12T08:37:04.240Z,13.20
2023-02-12T08:39:32.361Z,13.10
2023-02-12T08:42:01.728Z,11.60
2023-02-12T08:44:30.190Z,10.60
2023-02-12T08:46:58.349Z,17.50
2023-02-12T08:49:29.251Z,16.70
2023-02-12T08:51:59.417Z,15.60
2023-02-12T08:54:29.910Z,18.50
2023-02-12T08:57:00.536Z,19.80
2023-02-12T08:59:28.980Z,16.20
2023-02-12T09:01:57.372Z,15.70
2023-02-12T09:04:27.922Z,12.90
2023-02-12T09:06:56.191Z,15.20
2023-02-12T09:09:24.731Z,15.60
2023-02-12T09:11:53.038Z,19.10
2023-02-12T09:14:24.609Z,17.40
2023-02-12T09:16:54.590Z,15.40
2023-02-12T09:19:23.179Z,18.40
2023-02-12T09:21:56.435Z,16.00
2023-02-12T09:24:27.617Z,16.70
2023-02-12T09:26:56.889Z,15.70
2023-02-12T09:29:25.072Z,14.20
2023-02-12T09:31:53.437Z,17.70
2023-02-12T09:34:22.012Z,16.10
2023-02-12T09:36:50.472Z,15.60
2023-02-12T09:39:18.547Z,13.70
2023-02-12T09:42:03.200Z,16.70
2023-02-12T09:44:45.720Z,12.90
2023-02-12T09:47:24.067Z,18.70
2023-02-12T09:50:13.673Z,17.60
2023-02-12T09:52:41.809Z,14.70
2023-02-12T09:55:18.155Z,14.30
2023-02-12T09:57:46.720Z,19.10
2023-02-12T10:00:22.996Z,18.00
2023-02-12T10:02:56.328Z,14.20
2023-02-12T10:05:48.277Z,15.10
2023-02-12T10:08:27.097Z,17.30
2023-02-12T10:10:57.884Z,20.70
2023-02-12T10:13:38.194Z,19.70
2023-02-12T10:16:54.687Z,15.70
2023-02-12T10:19:41.423Z,19.70
2023-02-12T10:22:27.756Z,20.10
2023-02-12T10:25:24.216Z,19.90
2023-02-12T10:27:56.849Z,20.10
2023-02-12T10:30:38.003Z,19.00
2023-02-12T10:33:16.016Z,20.80
2023-02-12T10:35:50.372Z,20.90
2023-02-12T10:38:29.695Z,20.60
2023-02-12T10:41:02.009Z,18.40
2023-02-12T10:43:30.772Z,23.50
2023-02-12T10:45:59.084Z,18.70
2023-02-12T10:48:42.779Z,22.20
2023-02-12T10:51:41.171Z,20.10
2023-02-12T10:54:32.368Z,14.90
2023-02-12T10:57:11.722Z,17.30
2023-02-12T10:59:44.956Z,16.30
2023-02-12T11:02:23.606Z,22.00
2023-02-12T11:04:53.908Z,18.50
2023-02-12T11:07:23.334Z,16.20
2023-02-12T11:09:53.811Z,16.50
2023-02-12T11:12:48.374Z,15.60
2023-02-12T11:15:19.629Z,17.90
2023-02-12T11:18:09.062Z,16.40
2023-02-12T11:20:51.791Z,16.70
2023-02-12T11:23:27.989Z,15.50
2023-02-12T11:26:00.469Z,13.00
2023-02-12T11:28:30.258Z,11.20
2023-02-12T11:31:22.671Z,15.40
2023-02-12T11:34:12.919Z,11.50
2023-02-12T11:36:44.058Z,11.20
2023-02-12T11:39:34.941Z,14.50
2023-02-12T11:42:16.468Z,14.30
2023-02-12T11:44:59.462Z,15.10
2023-02-12T11:47:31.894Z,12.50
2023-02-12T11:52:35.735Z,15.90
2023-02-12T11:55:18.366Z,15.50
2023-02-12T11:57:49.019Z,16.20
2023-02-12T12:00:22.709Z,16.00
2023-02-12T12:03:22.658Z,14.40
2023-02-12T12:06:00.911Z,16.30
2023-02-12T12:08:36.809Z,14.40
2023-02-12T12:11:15.028Z,14.50
2023-02-12T12:14:22.687Z,17.60
2023-02-12T12:17:15.404Z,17.50
2023-02-12T12:20:11.397Z,18.90
2023-02-12T12:22:42.559Z,12.30
2023-02-12T12:25:20.583Z,18.30
2023-02-12T12:28:03.013Z,13.50
2023-02-12T12:30:59.554Z,20.80
2023-02-12T12:33:33.827Z,19.30
2023-02-12T12:36:14.426Z,17.90
2023-02-12T12:39:02.368Z,21.50
2023-02-12T12:41:51.621Z,17.20
2023-02-12T12:44:50.601Z,17.80
2023-02-12T12:47:49.745Z,20.50
2023-02-12T12:50:55.937Z,14.20
2023-02-12T12:53:24.104Z,17.80
2023-02-12T12:56:01.487Z,19.50
2023-02-12T12:58:38.418Z,20.90
2023-02-12T13:01:23.553Z,18.90
2023-02-12T13:04:13.684Z,19.20
2023-02-12T13:06:49.360Z,16.00
2023-02-12T13:09:46.217Z,15.40
2023-02-12T13:12:43.439Z,16.20
2023-02-12T13:15:46.009Z,14.30
2023-02-12T13:18:36.347Z,17.10
2023-02-12T13:21:31.151Z,19.00
2023-02-12T13:24:14.396Z,15.40
2023-02-12T13:26:56.890Z,16.00
2023-02-12T13:29:48.589Z,15.40
2023-02-12T13:32:24.271Z,12.50
2023-02-12T13:34:54.936Z,15.50
2023-02-12T13:37:38.832Z,16.10
2023-02-12T13:40:14.538Z,13.40
2023-02-12T13:43:20.329Z,11.50
2023-02-12T13:46:01.805Z,11.40
2023-02-12T13:48:44.769Z,13.50
2023-02-12T13:51:33.793Z,13.00
2023-02-12T13:54:12.839Z,11.60
2023-02-12T13:56:45.414Z,14.50
2023-02-12T13:59:34.472Z,12.20
2023-02-12T14:02:26.067Z,9.50
2023-02-12T14:04:54.172Z,12.80
2023-02-12T14:07:23.130Z,10.80
2023-02-12T14:09:51.211Z,12.30
2023-02-12T14:12:25.217Z,12.10
2023-02-12T14:15:03.867Z,12.70
2023-02-12T14:17:31.966Z,13.00
2023-02-12T14:20:24.117Z,11.10
2023-02-12T14:22:52.566Z,11.00
2023-02-12T14:37:37.627Z,14.10
2023-02-12T14:40:34.250Z,13.50
2023-02-12T14:43:22.062Z,11.60
2023-02-12T14:45:50.543Z,14.30
2023-02-12T14:49:00.787Z,12.40
2023-02-12T14:51:54.248Z,14.80
2023-02-12T15:05:02.680Z,12.50
2023-02-12T15:07:56.355Z,11.60
2023-02-12T15:10:54.388Z,10.10
2023-02-12T15:13:22.509Z,12.60
2023-02-12T15:16:01.073Z,8.60
2023-02-12T15:18:48.807Z,10.40
2023-02-12T15:21:26.887Z,8.40
2023-02-12T15:24:02.760Z,7.00
2023-02-12T15:26:34.228Z,6.50
2023-02-12T15:29:03.271Z,6.50
2023-02-12T15:31:33.664Z,6.90
2023-02-12T15:34:04.261Z,7.50
2023-02-12T15:36:37.498Z,6.20
2023-02-12T15:39:09.152Z,6.80
2023-02-12T15:41:40.355Z,5.20
2023-02-12T15:44:19.467Z,7.10
2023-02-12T15:47:18.048Z,5.70
2023-02-12T15:49:46.437Z,5.10
2023-02-12T15:52:47.873Z,6.70
2023-02-12T15:55:19.339Z,8.00
2023-02-12T15:58:01.170Z,5.60
2023-02-12T16:00:43.490Z,4.60
2023-02-12T16:03:31.408Z,5.50
2023-02-12T16:06:02.988Z,5.30
2023-02-12T16:08:34.157Z,4.80
2023-02-12T16:11:13.871Z,5.50
2023-02-12T16:13:52.728Z,5.00
2023-02-12T16:16:29.215Z,4.10
2023-02-12T16:19:15.975Z,4.90
2023-02-12T16:21:46.131Z,3.70
2023-02-12T16:24:35.521Z,4.50
2023-02-12T16:27:20.179Z,3.90
2023-02-12T16:29:57.889Z,5.70
2023-02-12T16:32:43.892Z,4.80
2023-02-12T16:35:12.143Z,5.20
2023-02-12T16:37:49.669Z,5.70
2023-02-12T16:40:21.924Z,7.20
2023-02-12T16:42:50.005Z,6.70
2023-02-12T16:45:32.249Z,7.40
2023-02-12T16:48:16.355Z,4.80
2023-02-12T16:50:54.512Z,5.40
2023-02-12T16:53:29.937Z,6.70
2023-02-12T16:55:59.674Z,6.60
2023-02-12T16:58:28.672Z,8.70
2023-02-12T17:00:58.226Z,7.10
2023-02-12T17:03:26.509Z,6.00
2023-02-12T17:05:55.249Z,7.30
2023-02-12T17:08:24.388Z,6.40
2023-02-12T17:10:53.207Z,6.20
2023-02-12T17:13:21.353Z,8.00
2023-02-12T17:15:59.059Z,8.00
2023-02-12T17:18:28.637Z,8.30
2023-02-12T17:21:02.317Z,10.10
2023-02-12T17:23:33.502Z,8.10
2023-02-12T17:26:01.671Z,7.50
2023-02-12T17:28:29.932Z,9.50
2023-02-12T17:30:58.707Z,8.60
2023-02-12T17:33:27.832Z,10.70
2023-02-12T17:35:58.632Z,8.10
2023-02-12T17:38:26.778Z,9.20
2023-02-12T17:40:55.313Z,9.50
2023-02-12T17:43:24.218Z,8.90
2023-02-12T17:45:53.521Z,11.10
2023-02-12T17:48:23.441Z,8.60
2023-02-12T17:50:57.997Z,9.00
2023-02-12T17:53:26.310Z,9.80
2023-02-12T17:55:54.431Z,9.60
2023-02-12T17:58:22.504Z,11.70
2023-02-12T18:00:50.649Z,9.90
2023-02-12T18:03:18.844Z,7.90
2023-02-12T18:05:47.268Z,9.70
2023-02-12T18:08:15.427Z,10.80
2023-02-12T18:10:44.742Z,10.10
2023-02-12T18:13:14.138Z,10.40
2023-02-12T18:15:42.272Z,8.10
2023-02-12T18:18:10.392Z,13.80
2023-02-12T18:20:41.018Z,10.20
2023-02-12T18:23:10.532Z,10.70
2023-02-12T18:25:43.529Z,10.20
2023-02-12T18:28:12.221Z,9.00
2023-02-12T18:30:42.947Z,10.20
2023-02-12T18:33:12.784Z,9.80
2023-02-12T18:35:41.870Z,10.10
2023-02-12T18:38:10.597Z,11.90
2023-02-12T18:40:41.737Z,9.30
2023-02-12T18:43:09.814Z,9.50
2023-02-12T18:45:39.820Z,10.90
2023-02-12T18:48:09.409Z,9.90
2023-02-12T18:50:38.036Z,8.80
2023-02-12T18:53:06.355Z,8.30
2023-02-12T18:55:34.465Z,10.10
2023-02-12T18:58:02.648Z,8.60
2023-02-12T19:00:30.720Z,9.30
2023-02-12T19:02:58.862Z,9.10
2023-02-12T19:05:27.112Z,6.90
2023-02-12T19:07:55.851Z,7.20
2023-02-12T19:10:23.939Z,9.20
2023-02-12T19:12:52.348Z,7.90
2023-02-12T19:15:20.561Z,10.20
2023-02-12T19:17:48.966Z,8.60
2023-02-12T19:20:17.519Z,9.90
2023-02-12T19:22:46.519Z,6.90
2023-02-12T19:25:15.249Z,9.80
2023-02-12T19:27:43.471Z,8.90
2023-02-12T19:30:12.067Z,11.10
2023-02-12T19:32:40.215Z,10.40
2023-02-12T19:35:08.436Z,10.60
2023-02-12T19:37:36.595Z,10.50
2023-02-12T19:40:05.105Z,9.20
2023-02-12T19:42:33.876Z,8.50
2023-02-12T19:45:02.064Z,8.60
2023-02-12T19:47:30.412Z,8.60
2023-02-12T19:49:58.507Z,9.40
2023-02-12T19:52:26.600Z,8.80
2023-02-12T19:54:54.669Z,8.90
2023-02-12T19:57:22.773Z,7.80
2023-02-12T19:59:50.856Z,8.70
2023-02-12T20:02:19.142Z,10.70
2023-02-12T20:04:47.771Z,9.00
2023-02-12T20:07:15.916Z,11.50
2023-02-12T20:09:44.349Z,7.00
2023-02-12T20:12:12.758Z,10.30
2023-02-12T20:14:40.824Z,8.50
2023-02-12T20:17:09.013Z,12.30
2023-02-12T20:19:37.259Z,10.60
2023-02-12T20:22:05.516Z,7.40
2023-02-12T20:24:34.180Z,8.90
2023-02-12T20:27:03.339Z,7.90
2023-02-12T20:29:31.485Z,10.90
2023-02-12T20:31:59.668Z,9.60
2023-02-12T20:34:27.926Z,14.90
2023-02-12T20:36:56.100Z,8.70
2023-02-12T20:39:24.637Z,6.40
2023-02-12T20:41:52.730Z,5.90
2023-02-12T20:44:22.222Z,8.60
2023-02-12T20:46:56.424Z,9.20
2023-02-12T20:49:25.594Z,8.80
2023-02-12T20:51:54.365Z,10.10
2023-02-12T20:54:22.839Z,9.60
2023-02-12T20:56:51.047Z,10.90
2023-02-12T20:59:19.339Z,9.30
2023-02-12T21:01:48.117Z,11.00
2023-02-12T21:04:18.439Z,8.50
2023-02-12T21:06:48.717Z,10.70
2023-02-12T21:09:17.613Z,10.50
2023-02-12T21:11:46.051Z,9.70
2023-02-12T21:14:24.210Z,10.70
2023-02-12T21:16:54.791Z,8.50
2023-02-12T21:19:23.420Z,9.30
2023-02-12T21:21:52.062Z,9.90
2023-02-12T21:24:23.771Z,7.90
2023-02-12T21:26:54.906Z,10.00
2023-02-12T21:29:26.673Z,10.10
2023-02-12T21:31:55.711Z,8.60
2023-02-12T21:34:24.012Z,6.70
2023-02-12T21:36:55.353Z,8.20
2023-02-12T21:39:27.795Z,9.30
2023-02-12T21:42:02.982Z,8.30
2023-02-12T21:44:35.445Z,7.60
2023-02-12T21:47:04.618Z,11.70
2023-02-12T21:49:32.915Z,7.40
2023-02-12T21:52:03.657Z,8.90
2023-02-12T21:54:31.919Z,11.20
2023-02-12T21:57:00.316Z,5.50
2023-02-12T21:59:31.773Z,7.80
2023-02-12T22:02:01.870Z,8.50
2023-02-12T22:04:30.040Z,6.00
2023-02-12T22:06:59.724Z,7.10
2023-02-12T22:09:27.785Z,10.60
2023-02-12T22:11:55.937Z,7.60
2023-02-12T22:14:24.130Z,6.10
2023-02-12T22:16:52.315Z,7.60
2023-02-12T22:19:20.431Z,6.40
2023-02-12T22:21:51.573Z,8.00
2023-02-12T22:24:20.925Z,7.60
2023-02-12T22:26:49.154Z,7.30
2023-02-12T22:29:18.171Z,7.70
2023-02-12T22:31:47.418Z,6.70
2023-02-12T22:34:19.038Z,11.70
2023-02-12T22:36:47.590Z,10.10
2023-02-12T22:39:17.639Z,7.00
2023-02-12T22:41:46.490Z,7.80
2023-02-12T22:44:16.253Z,5.80
2023-02-12T22:46:45.102Z,8.10
2023-02-12T22:49:14.016Z,3.70
2023-02-12T22:51:42.556Z,7.60
2023-02-12T22:54:15.082Z,8.60
2023-02-12T22:56:44.402Z,6.70
2023-02-12T22:59:13.121Z,9.00
2023-02-12T23:01:41.920Z,8.60
2023-02-12T23:04:18.215Z,8.60
2023-02-12T23:06:47.019Z,10.20
2023-02-12T23:09:18.999Z,7.00
2023-02-12T23:11:48.132Z,6.30
2023-02-12T23:14:16.481Z,6.00
2023-02-12T23:16:45.021Z,6.80
2023-02-12T23:19:13.722Z,10.20
2023-02-12T23:21:42.123Z,6.20
2023-02-12T23:24:14.551Z,5.70
2023-02-12T23:26:43.070Z,5.20
2023-02-12T23:29:11.386Z,15.90
2023-02-12T23:31:39.869Z,16.20
2023-02-12T23:34:08.208Z,14.60
2023-02-12T23:36:36.423Z,12.60
2023-02-12T23:39:06.148Z,7.70
2023-02-12T23:41:34.477Z,12.80
2023-02-12T23:44:03.090Z,9.30
2023-02-12T23:46:31.821Z,8.10
2023-02-12T23:49:00.015Z,7.80
2023-02-12T23:51:28.192Z,7.20
2023-02-12T23:53:56.435Z,5.60
2023-02-12T23:56:25.188Z,9.90
2023-02-12T23:58:57.411Z,6.60
